createdAt,value
2022-08-31T00:00:00.193Z,7.80
2022-08-31T00:00:10.138Z,7.90
2022-08-31T00:00:20.074Z,7.60
2022-08-31T00:00:30.333Z,7.60
2022-08-31T00:00:40.319Z,7.50
2022-08-31T00:00:50.178Z,7.50
2022-08-31T00:01:00.311Z,7.90
2022-08-31T00:01:10.336Z,7.80
2022-08-31T00:01:20.205Z,8.00
2022-08-31T00:01:30.146Z,7.50
2022-08-31T00:01:40.168Z,7.70
2022-08-31T00:01:50.402Z,7.60
2022-08-31T00:02:00.226Z,7.80
2022-08-31T00:02:10.230Z,7.70
2022-08-31T00:02:20.168Z,7.90
2022-08-31T00:02:30.373Z,7.80
2022-08-31T00:02:40.198Z,7.90
2022-08-31T00:02:50.089Z,7.80
2022-08-31T00:03:00.111Z,7.90
2022-08-31T00:03:10.223Z,8.00
2022-08-31T00:03:20.531Z,7.90
2022-08-31T00:03:30.134Z,7.70
2022-08-31T00:03:40.041Z,7.70
2022-08-31T00:03:50.348Z,7.40
2022-08-31T00:04:00.311Z,7.20
2022-08-31T00:04:10.350Z,7.20
2022-08-31T00:04:20.371Z,7.20
2022-08-31T00:04:30.311Z,7.20
2022-08-31T00:04:40.170Z,7.20
2022-08-31T00:04:50.238Z,7.40
2022-08-31T00:05:00.198Z,7.20
2022-08-31T00:05:10.045Z,6.90
2022-08-31T00:05:20.261Z,7.00
2022-08-31T00:05:30.110Z,7.10
2022-08-31T00:05:40.040Z,7.20
2022-08-31T00:05:50.195Z,7.10
2022-08-31T00:06:00.245Z,7.20
2022-08-31T00:06:10.165Z,7.30
2022-08-31T00:06:20.066Z,7.40
2022-08-31T00:06:30.190Z,7.40
2022-08-31T00:06:40.209Z,7.10
2022-08-31T00:06:53.941Z,6.80
2022-08-31T00:07:00.222Z,6.70
2022-08-31T00:07:10.301Z,6.90
2022-08-31T00:07:20.195Z,7.00
2022-08-31T00:07:30.078Z,7.00
2022-08-31T00:07:40.337Z,6.90
2022-08-31T00:07:50.095Z,6.60
2022-08-31T00:08:00.269Z,6.60
2022-08-31T00:08:10.088Z,6.50
2022-08-31T00:08:20.127Z,6.70
2022-08-31T00:08:30.094Z,6.70
2022-08-31T00:08:40.305Z,6.70
2022-08-31T00:08:50.360Z,6.90
2022-08-31T00:09:00.122Z,6.90
2022-08-31T00:09:10.248Z,6.80
2022-08-31T00:09:20.260Z,6.50
2022-08-31T00:09:30.199Z,6.60
2022-08-31T00:09:40.130Z,6.40
2022-08-31T00:09:50.335Z,6.40
2022-08-31T00:10:00.064Z,6.30
2022-08-31T00:10:10.097Z,6.50
2022-08-31T00:10:20.134Z,6.70
2022-08-31T00:10:32.273Z,6.90
2022-08-31T00:10:40.048Z,7.00
2022-08-31T00:10:50.293Z,7.20
2022-08-31T00:11:00.097Z,6.90
2022-08-31T00:11:10.355Z,6.80
2022-08-31T00:11:20.085Z,6.60
2022-08-31T00:11:30.188Z,6.80
2022-08-31T00:11:40.280Z,6.70
2022-08-31T00:11:50.232Z,6.80
2022-08-31T00:12:00.197Z,6.40
2022-08-31T00:12:10.235Z,6.40
2022-08-31T00:12:20.175Z,6.40
2022-08-31T00:12:30.358Z,6.50
2022-08-31T00:12:40.066Z,6.40
2022-08-31T00:12:50.355Z,6.50
2022-08-31T00:13:00.343Z,6.70
2022-08-31T00:13:10.272Z,6.80
2022-08-31T00:13:20.149Z,6.60
2022-08-31T00:13:30.321Z,6.50
2022-08-31T00:13:40.168Z,6.50
2022-08-31T00:13:50.115Z,6.40
2022-08-31T00:14:00.260Z,6.70
2022-08-31T00:14:13.281Z,6.50
2022-08-31T00:14:20.186Z,6.70
2022-08-31T00:14:30.152Z,6.50
2022-08-31T00:14:40.053Z,6.80
2022-08-31T00:14:50.103Z,6.70
2022-08-31T00:15:00.241Z,6.50
2022-08-31T00:15:10.121Z,6.30
2022-08-31T00:15:20.234Z,6.40
2022-08-31T00:15:30.446Z,6.60
2022-08-31T00:15:40.280Z,6.50
2022-08-31T00:15:50.115Z,6.70
2022-08-31T00:16:00.287Z,6.70
2022-08-31T00:16:10.322Z,7.00
2022-08-31T00:16:20.272Z,6.90
2022-08-31T00:16:30.407Z,6.80
2022-08-31T00:16:40.398Z,6.90
2022-08-31T00:16:50.260Z,7.00
2022-08-31T00:17:00.281Z,7.40
2022-08-31T00:17:10.266Z,7.10
2022-08-31T00:17:20.187Z,7.00
2022-08-31T00:17:30.133Z,6.90
2022-08-31T00:17:40.260Z,6.90
2022-08-31T00:17:50.047Z,6.80
2022-08-31T00:18:00.211Z,6.70
2022-08-31T00:18:10.080Z,6.70
2022-08-31T00:18:20.313Z,6.70
2022-08-31T00:18:30.166Z,6.50
2022-08-31T00:18:40.045Z,6.50
2022-08-31T00:18:50.248Z,6.70
2022-08-31T00:19:00.044Z,6.80
2022-08-31T00:19:10.144Z,6.90
2022-08-31T00:19:20.311Z,6.70
2022-08-31T00:19:30.174Z,6.60
2022-08-31T00:19:40.041Z,6.90
2022-08-31T00:19:50.113Z,6.80
2022-08-31T00:20:00.267Z,6.90
2022-08-31T00:20:32.516Z,6.90
2022-08-31T00:20:32.683Z,6.80
2022-08-31T00:20:33.893Z,6.90
2022-08-31T00:20:40.344Z,6.90
2022-08-31T00:20:50.111Z,6.80
2022-08-31T00:21:00.297Z,6.80
2022-08-31T00:21:10.131Z,6.70
2022-08-31T00:21:20.096Z,6.80
2022-08-31T00:21:30.192Z,6.80
2022-08-31T00:21:40.214Z,7.00
2022-08-31T00:21:50.267Z,6.90
2022-08-31T00:22:00.192Z,6.70
2022-08-31T00:22:10.078Z,6.60
2022-08-31T00:22:20.284Z,6.70
2022-08-31T00:22:30.092Z,7.00
2022-08-31T00:22:40.244Z,6.90
2022-08-31T00:22:50.202Z,7.00
2022-08-31T00:23:00.205Z,7.00
2022-08-31T00:23:10.173Z,7.30
2022-08-31T00:23:20.296Z,7.30
2022-08-31T00:23:30.295Z,7.30
2022-08-31T00:23:40.054Z,7.50
2022-08-31T00:23:50.359Z,7.90
2022-08-31T00:24:00.109Z,7.90
2022-08-31T00:24:10.233Z,7.60
2022-08-31T00:24:20.064Z,6.90
2022-08-31T00:24:30.167Z,7.10
2022-08-31T00:24:40.328Z,7.00
2022-08-31T00:24:50.344Z,7.10
2022-08-31T00:25:00.107Z,6.90
2022-08-31T00:25:10.141Z,6.90
2022-08-31T00:25:20.311Z,6.80
2022-08-31T00:25:30.127Z,6.80
2022-08-31T00:25:40.269Z,6.70
2022-08-31T00:25:50.106Z,6.70
2022-08-31T00:26:00.099Z,6.90
2022-08-31T00:26:10.096Z,7.00
2022-08-31T00:26:20.318Z,7.30
2022-08-31T00:26:30.100Z,7.10
2022-08-31T00:26:40.107Z,7.30
2022-08-31T00:26:50.058Z,7.20
2022-08-31T00:27:00.093Z,7.30
2022-08-31T00:27:10.175Z,7.40
2022-08-31T00:27:20.117Z,7.40
2022-08-31T00:27:30.158Z,7.40
2022-08-31T00:27:40.347Z,7.50
2022-08-31T00:27:50.324Z,7.70
2022-08-31T00:28:00.252Z,7.40
2022-08-31T00:28:10.296Z,7.20
2022-08-31T00:28:20.285Z,7.00
2022-08-31T00:28:30.077Z,7.40
2022-08-31T00:28:40.086Z,7.40
2022-08-31T00:28:50.213Z,7.10
2022-08-31T00:29:00.270Z,6.80
2022-08-31T00:29:10.293Z,6.70
2022-08-31T00:29:20.190Z,7.20
2022-08-31T00:29:30.174Z,7.30
2022-08-31T00:29:40.194Z,7.40
2022-08-31T00:29:50.292Z,6.90
2022-08-31T00:30:00.173Z,7.10
2022-08-31T00:30:10.029Z,7.10
2022-08-31T00:30:20.101Z,7.70
2022-08-31T00:30:30.083Z,7.50
2022-08-31T00:30:40.082Z,7.20
2022-08-31T00:30:50.211Z,6.60
2022-08-31T00:31:00.104Z,6.90
2022-08-31T00:31:10.037Z,7.10
2022-08-31T00:31:20.272Z,7.30
2022-08-31T00:31:30.233Z,7.20
2022-08-31T00:31:40.370Z,7.20
2022-08-31T00:31:50.138Z,7.30
2022-08-31T00:32:00.371Z,7.20
2022-08-31T00:32:10.235Z,7.10
2022-08-31T00:32:22.375Z,7.00
2022-08-31T00:32:30.133Z,7.10
2022-08-31T00:32:40.112Z,7.40
2022-08-31T00:32:50.239Z,7.80
2022-08-31T00:33:00.285Z,8.00
2022-08-31T00:33:10.264Z,7.70
2022-08-31T00:33:20.488Z,7.80
2022-08-31T00:33:30.141Z,7.90
2022-08-31T00:33:40.195Z,8.20
2022-08-31T00:33:50.030Z,7.80
2022-08-31T00:34:00.107Z,7.40
2022-08-31T00:34:10.098Z,7.40
2022-08-31T00:34:20.048Z,7.80
2022-08-31T00:34:30.119Z,8.40
2022-08-31T00:34:40.359Z,8.70
2022-08-31T00:34:50.196Z,8.60
2022-08-31T00:35:00.054Z,8.20
2022-08-31T00:35:10.078Z,7.90
2022-08-31T00:35:20.156Z,7.70
2022-08-31T00:35:30.346Z,7.70
2022-08-31T00:35:40.231Z,7.70
2022-08-31T00:35:50.365Z,7.70
2022-08-31T00:36:00.086Z,7.60
2022-08-31T00:36:10.089Z,7.50
2022-08-31T00:36:20.109Z,7.50
2022-08-31T00:36:30.331Z,7.60
2022-08-31T00:36:40.219Z,8.00
2022-08-31T00:36:50.298Z,8.10
2022-08-31T00:37:00.180Z,8.10
2022-08-31T00:37:10.079Z,8.30
2022-08-31T00:37:20.212Z,8.10
2022-08-31T00:37:30.085Z,8.10
2022-08-31T00:37:40.135Z,7.50
2022-08-31T00:37:50.122Z,7.60
2022-08-31T00:38:00.053Z,7.50
2022-08-31T00:38:10.070Z,7.80
2022-08-31T00:38:20.085Z,7.90
2022-08-31T00:38:30.214Z,7.80
2022-08-31T00:38:40.332Z,7.70
2022-08-31T00:38:50.333Z,7.50
2022-08-31T00:39:00.186Z,7.60
2022-08-31T00:39:10.040Z,7.40
2022-08-31T00:39:20.187Z,7.50
2022-08-31T00:39:30.221Z,7.60
2022-08-31T00:39:40.057Z,7.80
2022-08-31T00:39:50.151Z,8.00
2022-08-31T00:40:00.506Z,8.30
2022-08-31T00:40:10.269Z,8.50
2022-08-31T00:40:20.313Z,8.40
2022-08-31T00:40:30.411Z,8.10
2022-08-31T00:40:44.721Z,7.90
2022-08-31T00:40:50.163Z,7.80
2022-08-31T00:41:00.159Z,7.80
2022-08-31T00:41:10.227Z,8.20
2022-08-31T00:41:20.211Z,8.00
2022-08-31T00:41:30.341Z,8.40
2022-08-31T00:41:40.044Z,8.00
2022-08-31T00:41:50.181Z,8.10
2022-08-31T00:42:00.273Z,8.00
2022-08-31T00:42:10.353Z,7.90
2022-08-31T00:42:20.124Z,7.80
2022-08-31T00:42:30.106Z,7.60
2022-08-31T00:42:40.266Z,8.00
2022-08-31T00:42:50.184Z,8.10
2022-08-31T00:43:00.057Z,7.90
2022-08-31T00:43:10.250Z,7.60
2022-08-31T00:43:20.258Z,7.50
2022-08-31T00:43:30.059Z,7.80
2022-08-31T00:43:40.195Z,8.20
2022-08-31T00:43:50.195Z,8.00
2022-08-31T00:44:00.273Z,7.80
2022-08-31T00:44:10.216Z,7.50
2022-08-31T00:44:20.095Z,7.60
2022-08-31T00:44:30.103Z,7.90
2022-08-31T00:44:40.285Z,7.50
2022-08-31T00:44:50.299Z,7.50
2022-08-31T00:45:00.297Z,7.50
2022-08-31T00:45:10.302Z,8.00
2022-08-31T00:45:20.309Z,7.90
2022-08-31T00:45:30.090Z,7.90
2022-08-31T00:45:40.251Z,7.90
2022-08-31T00:45:50.263Z,7.80
2022-08-31T00:46:00.277Z,8.10
2022-08-31T00:46:10.261Z,7.80
2022-08-31T00:46:20.173Z,7.80
2022-08-31T00:46:30.338Z,7.60
2022-08-31T00:46:40.110Z,7.50
2022-08-31T00:46:50.212Z,7.40
2022-08-31T00:47:00.331Z,7.40
2022-08-31T00:47:10.322Z,7.50
2022-08-31T00:47:20.241Z,7.50
2022-08-31T00:47:30.113Z,7.60
2022-08-31T00:47:40.251Z,7.80
2022-08-31T00:47:50.141Z,8.20
2022-08-31T00:48:00.067Z,8.10
2022-08-31T00:48:10.293Z,7.70
2022-08-31T00:48:20.248Z,7.60
2022-08-31T00:48:30.076Z,7.60
2022-08-31T00:48:40.144Z,8.00
2022-08-31T00:48:50.383Z,7.50
2022-08-31T00:49:00.139Z,7.80
2022-08-31T00:49:10.239Z,7.60
2022-08-31T00:49:20.205Z,7.80
2022-08-31T00:49:30.118Z,7.80
2022-08-31T00:49:40.122Z,7.80
2022-08-31T00:49:50.082Z,7.70
2022-08-31T00:50:00.225Z,7.60
2022-08-31T00:50:10.204Z,7.70
2022-08-31T00:50:20.114Z,8.10
2022-08-31T00:50:30.063Z,7.90
2022-08-31T00:50:40.076Z,7.90
2022-08-31T00:50:50.141Z,7.70
2022-08-31T00:51:00.241Z,7.40
2022-08-31T00:51:10.252Z,7.50
2022-08-31T00:51:20.249Z,7.60
2022-08-31T00:51:30.197Z,7.70
2022-08-31T00:51:40.049Z,7.50
2022-08-31T00:51:50.339Z,7.40
2022-08-31T00:52:00.151Z,7.60
2022-08-31T00:52:10.250Z,7.70
2022-08-31T00:52:20.147Z,7.60
2022-08-31T00:52:30.100Z,7.50
2022-08-31T00:52:40.094Z,7.50
2022-08-31T00:52:50.041Z,7.90
2022-08-31T00:53:00.128Z,8.00
2022-08-31T00:53:10.285Z,8.10
2022-08-31T00:53:20.154Z,7.80
2022-08-31T00:53:30.088Z,7.60
2022-08-31T00:53:40.184Z,7.70
2022-08-31T00:53:50.945Z,7.60
2022-08-31T00:54:00.037Z,7.60
2022-08-31T00:54:10.239Z,7.60
2022-08-31T00:54:20.206Z,7.70
2022-08-31T00:54:30.046Z,7.90
2022-08-31T00:54:40.140Z,7.90
2022-08-31T00:54:50.139Z,7.80
2022-08-31T00:55:00.200Z,7.80
2022-08-31T00:55:10.226Z,7.80
2022-08-31T00:55:20.065Z,7.80
2022-08-31T00:55:30.188Z,7.80
2022-08-31T00:55:40.372Z,7.50
2022-08-31T00:55:50.231Z,7.40
2022-08-31T00:56:00.333Z,7.50
2022-08-31T00:56:10.138Z,7.50
2022-08-31T00:56:20.116Z,7.50
2022-08-31T00:56:30.107Z,7.40
2022-08-31T00:56:40.137Z,7.70
2022-08-31T00:56:50.156Z,7.90
2022-08-31T00:57:00.161Z,7.70
2022-08-31T00:57:10.065Z,7.50
2022-08-31T00:57:24.604Z,7.40
2022-08-31T00:57:34.189Z,7.50
2022-08-31T00:57:40.263Z,7.40
2022-08-31T00:57:50.286Z,7.50
2022-08-31T00:58:00.100Z,7.70
2022-08-31T00:58:10.262Z,8.10
2022-08-31T00:58:20.255Z,8.10
2022-08-31T00:58:30.233Z,7.90
2022-08-31T00:58:40.078Z,7.70
2022-08-31T00:58:54.455Z,7.60
2022-08-31T00:59:00.085Z,7.90
2022-08-31T00:59:10.219Z,7.60
2022-08-31T00:59:20.156Z,7.60
2022-08-31T00:59:30.263Z,7.30
2022-08-31T00:59:40.124Z,7.50
2022-08-31T00:59:50.218Z,7.60
2022-08-31T01:00:00.384Z,7.70
2022-08-31T01:00:10.284Z,7.70
2022-08-31T01:00:20.123Z,7.60
2022-08-31T01:00:30.153Z,7.60
2022-08-31T01:00:40.328Z,7.30
2022-08-31T01:00:50.154Z,7.20
2022-08-31T01:01:00.162Z,7.00
2022-08-31T01:01:10.203Z,6.90
2022-08-31T01:01:20.247Z,7.00
2022-08-31T01:01:30.292Z,7.00
2022-08-31T01:01:40.237Z,7.50
2022-08-31T01:01:50.383Z,7.40
2022-08-31T01:02:00.392Z,7.60
2022-08-31T01:02:10.304Z,7.60
2022-08-31T01:02:20.325Z,7.50
2022-08-31T01:02:30.299Z,7.60
2022-08-31T01:02:40.405Z,7.40
2022-08-31T01:02:50.125Z,7.50
2022-08-31T01:03:00.244Z,7.90
2022-08-31T01:03:10.028Z,8.10
2022-08-31T01:03:20.202Z,8.10
2022-08-31T01:03:30.046Z,7.70
2022-08-31T01:03:40.062Z,7.60
2022-08-31T01:03:50.037Z,7.60
2022-08-31T01:04:00.070Z,7.60
2022-08-31T01:04:10.047Z,7.60
2022-08-31T01:04:20.095Z,7.40
2022-08-31T01:04:30.104Z,7.20
2022-08-31T01:04:40.130Z,7.20
2022-08-31T01:04:50.077Z,7.50
2022-08-31T01:05:00.070Z,7.70
2022-08-31T01:05:10.070Z,7.70
2022-08-31T01:05:20.307Z,8.00
2022-08-31T01:05:30.180Z,8.10
2022-08-31T01:05:40.111Z,7.80
2022-08-31T01:05:50.049Z,7.20
2022-08-31T01:06:00.195Z,7.10
2022-08-31T01:06:10.128Z,7.40
2022-08-31T01:06:20.047Z,7.50
2022-08-31T01:06:30.294Z,7.30
2022-08-31T01:06:40.130Z,7.50
2022-08-31T01:06:50.102Z,7.50
2022-08-31T01:07:00.113Z,7.50
2022-08-31T01:07:10.182Z,7.60
2022-08-31T01:07:20.122Z,7.60
2022-08-31T01:07:30.109Z,7.60
2022-08-31T01:07:40.067Z,7.30
2022-08-31T01:07:50.185Z,7.30
2022-08-31T01:08:00.292Z,7.30
2022-08-31T01:08:10.316Z,7.30
2022-08-31T01:08:21.569Z,7.30
2022-08-31T01:08:31.022Z,7.50
2022-08-31T01:08:40.200Z,7.50
2022-08-31T01:08:50.260Z,7.40
2022-08-31T01:09:00.249Z,7.50
2022-08-31T01:09:10.291Z,7.80
2022-08-31T01:09:20.056Z,8.00
2022-08-31T01:09:30.251Z,7.70
2022-08-31T01:09:40.197Z,7.40
2022-08-31T01:09:55.861Z,7.20
2022-08-31T01:10:00.223Z,7.50
2022-08-31T01:10:10.074Z,7.70
2022-08-31T01:10:20.255Z,7.70
2022-08-31T01:10:30.255Z,7.80
2022-08-31T01:10:40.269Z,7.60
2022-08-31T01:10:50.333Z,7.60
2022-08-31T01:11:00.113Z,7.50
2022-08-31T01:11:10.291Z,7.60
2022-08-31T01:11:20.307Z,7.90
2022-08-31T01:11:30.135Z,8.00
2022-08-31T01:11:40.329Z,8.30
2022-08-31T01:11:50.330Z,8.10
2022-08-31T01:12:00.133Z,8.00
2022-08-31T01:12:10.105Z,7.70
2022-08-31T01:12:20.286Z,7.90
2022-08-31T01:12:30.327Z,7.70
2022-08-31T01:12:40.325Z,7.70
2022-08-31T01:12:50.612Z,7.70
2022-08-31T01:13:00.171Z,7.60
2022-08-31T01:13:10.287Z,7.80
2022-08-31T01:13:20.196Z,8.00
2022-08-31T01:13:30.104Z,8.20
2022-08-31T01:13:40.087Z,8.30
2022-08-31T01:13:50.237Z,8.00
2022-08-31T01:14:00.030Z,7.90
2022-08-31T01:14:10.073Z,7.70
2022-08-31T01:14:20.180Z,7.80
2022-08-31T01:14:30.217Z,7.70
2022-08-31T01:14:40.095Z,7.80
2022-08-31T01:14:50.065Z,8.00
2022-08-31T01:15:00.176Z,8.20
2022-08-31T01:15:10.037Z,8.30
2022-08-31T01:15:20.188Z,8.00
2022-08-31T01:15:30.120Z,7.90
2022-08-31T01:15:40.322Z,7.90
2022-08-31T01:15:51.301Z,7.70
2022-08-31T01:16:00.272Z,7.70
2022-08-31T01:16:10.268Z,7.60
2022-08-31T01:16:20.270Z,7.90
2022-08-31T01:16:30.377Z,8.00
2022-08-31T01:16:40.387Z,7.80
2022-08-31T01:16:50.364Z,7.70
2022-08-31T01:17:00.078Z,7.50
2022-08-31T01:17:10.145Z,7.60
2022-08-31T01:17:20.287Z,7.60
2022-08-31T01:17:30.169Z,7.70
2022-08-31T01:17:40.282Z,7.40
2022-08-31T01:17:50.347Z,7.40
2022-08-31T01:18:00.124Z,7.50
2022-08-31T01:18:10.072Z,7.60
2022-08-31T01:18:20.253Z,7.30
2022-08-31T01:18:30.164Z,7.30
2022-08-31T01:18:40.301Z,7.50
2022-08-31T01:18:50.233Z,7.50
2022-08-31T01:19:00.329Z,7.40
2022-08-31T01:19:10.094Z,7.30
2022-08-31T01:19:20.358Z,7.60
2022-08-31T01:19:30.072Z,7.60
2022-08-31T01:19:40.148Z,7.40
2022-08-31T01:19:50.132Z,7.20
2022-08-31T01:20:00.347Z,7.00
2022-08-31T01:20:10.177Z,7.10
2022-08-31T01:20:20.245Z,6.90
2022-08-31T01:20:30.162Z,7.10
2022-08-31T01:20:40.664Z,7.20
2022-08-31T01:20:50.284Z,7.30
2022-08-31T01:21:00.153Z,7.20
2022-08-31T01:21:10.119Z,7.10
2022-08-31T01:21:20.307Z,7.20
2022-08-31T01:21:30.061Z,7.30
2022-08-31T01:21:40.128Z,7.30
2022-08-31T01:21:50.121Z,7.50
2022-08-31T01:22:00.150Z,7.30
2022-08-31T01:22:10.324Z,7.30
2022-08-31T01:22:20.042Z,7.10
2022-08-31T01:22:30.144Z,7.20
2022-08-31T01:22:40.171Z,7.50
2022-08-31T01:22:50.102Z,7.70
2022-08-31T01:23:00.143Z,7.80
2022-08-31T01:23:10.272Z,7.80
2022-08-31T01:23:20.067Z,7.60
2022-08-31T01:23:30.123Z,7.30
2022-08-31T01:23:40.200Z,7.10
2022-08-31T01:23:50.329Z,7.30
2022-08-31T01:24:00.220Z,7.50
2022-08-31T01:24:10.218Z,7.50
2022-08-31T01:24:20.178Z,7.20
2022-08-31T01:24:30.057Z,7.10
2022-08-31T01:24:40.286Z,6.80
2022-08-31T01:24:50.144Z,6.80
2022-08-31T01:25:00.343Z,6.90
2022-08-31T01:25:10.211Z,7.20
2022-08-31T01:25:20.448Z,7.10
2022-08-31T01:25:33.514Z,6.90
2022-08-31T01:25:40.186Z,6.90
2022-08-31T01:25:50.140Z,7.10
2022-08-31T01:26:00.044Z,7.40
2022-08-31T01:26:10.219Z,7.60
2022-08-31T01:26:20.189Z,7.50
2022-08-31T01:26:30.175Z,7.50
2022-08-31T01:26:40.161Z,7.30
2022-08-31T01:26:55.631Z,7.20
2022-08-31T01:27:00.097Z,7.00
2022-08-31T01:27:10.336Z,7.10
2022-08-31T01:27:20.298Z,7.00
2022-08-31T01:27:30.061Z,7.00
2022-08-31T01:27:40.122Z,7.20
2022-08-31T01:27:50.271Z,7.70
2022-08-31T01:28:00.155Z,7.90
2022-08-31T01:28:10.049Z,7.80
2022-08-31T01:28:20.301Z,7.90
2022-08-31T01:28:30.080Z,7.70
2022-08-31T01:28:40.070Z,7.90
2022-08-31T01:28:50.299Z,7.60
2022-08-31T01:29:00.221Z,7.40
2022-08-31T01:29:10.148Z,7.60
2022-08-31T01:29:20.153Z,7.80
2022-08-31T01:29:30.209Z,7.80
2022-08-31T01:29:40.184Z,7.70
2022-08-31T01:29:50.306Z,7.60
2022-08-31T01:30:00.179Z,7.40
2022-08-31T01:30:10.087Z,7.30
2022-08-31T01:30:20.166Z,7.30
2022-08-31T01:30:30.230Z,7.60
2022-08-31T01:30:40.080Z,7.70
2022-08-31T01:30:50.297Z,7.70
2022-08-31T01:31:00.186Z,7.50
2022-08-31T01:31:10.245Z,7.70
2022-08-31T01:31:20.303Z,7.60
2022-08-31T01:31:30.311Z,7.90
2022-08-31T01:31:40.207Z,7.50
2022-08-31T01:31:50.288Z,7.60
2022-08-31T01:32:00.130Z,7.30
2022-08-31T01:32:10.241Z,7.30
2022-08-31T01:32:20.314Z,7.00
2022-08-31T01:32:30.081Z,7.20
2022-08-31T01:32:40.285Z,7.50
2022-08-31T01:32:50.093Z,7.90
2022-08-31T01:33:00.279Z,8.10
2022-08-31T01:33:10.220Z,7.90
2022-08-31T01:33:20.141Z,8.00
2022-08-31T01:33:30.139Z,7.90
2022-08-31T01:33:40.071Z,8.10
2022-08-31T01:33:50.100Z,8.00
2022-08-31T01:34:00.127Z,8.00
2022-08-31T01:34:10.278Z,7.70
2022-08-31T01:34:20.148Z,7.80
2022-08-31T01:34:30.064Z,7.50
2022-08-31T01:34:40.110Z,7.70
2022-08-31T01:34:50.356Z,7.30
2022-08-31T01:35:00.048Z,7.00
2022-08-31T01:35:11.579Z,6.90
2022-08-31T01:35:20.052Z,7.20
2022-08-31T01:35:30.058Z,7.60
2022-08-31T01:35:40.289Z,7.30
2022-08-31T01:35:50.132Z,7.20
2022-08-31T01:36:00.097Z,7.20
2022-08-31T01:36:13.127Z,7.40
2022-08-31T01:36:20.275Z,7.50
2022-08-31T01:36:30.306Z,7.50
2022-08-31T01:36:40.086Z,7.60
2022-08-31T01:36:50.176Z,7.50
2022-08-31T01:37:00.302Z,7.70
2022-08-31T01:37:10.234Z,7.70
2022-08-31T01:37:20.329Z,7.90
2022-08-31T01:37:30.435Z,7.60
2022-08-31T01:37:40.238Z,7.60
2022-08-31T01:37:50.105Z,7.30
2022-08-31T01:38:00.272Z,7.50
2022-08-31T01:38:10.334Z,7.30
2022-08-31T01:38:20.272Z,7.60
2022-08-31T01:38:30.144Z,7.50
2022-08-31T01:38:40.269Z,7.60
2022-08-31T01:38:53.010Z,7.40
2022-08-31T01:39:00.150Z,7.40
2022-08-31T01:39:10.232Z,7.60
2022-08-31T01:39:20.138Z,7.90
2022-08-31T01:39:30.178Z,8.50
2022-08-31T01:39:40.212Z,8.40
2022-08-31T01:39:50.229Z,8.60
2022-08-31T01:40:00.330Z,8.60
2022-08-31T01:40:10.261Z,8.70
2022-08-31T01:40:20.238Z,8.90
2022-08-31T01:40:30.448Z,8.80
2022-08-31T01:40:40.303Z,8.80
2022-08-31T01:40:50.255Z,8.60
2022-08-31T01:41:00.263Z,8.80
2022-08-31T01:41:10.032Z,9.10
2022-08-31T01:41:20.058Z,9.20
2022-08-31T01:41:30.215Z,9.30
2022-08-31T01:41:40.173Z,9.00
2022-08-31T01:41:50.177Z,8.80
2022-08-31T01:42:00.193Z,8.60
2022-08-31T01:42:10.290Z,8.60
2022-08-31T01:42:20.235Z,9.00
2022-08-31T01:42:33.436Z,9.20
2022-08-31T01:42:40.044Z,9.60
2022-08-31T01:42:50.227Z,9.40
2022-08-31T01:43:00.127Z,9.30
2022-08-31T01:43:10.200Z,9.10
2022-08-31T01:43:20.259Z,8.70
2022-08-31T01:43:30.034Z,8.40
2022-08-31T01:43:40.149Z,8.40
2022-08-31T01:43:50.066Z,8.50
2022-08-31T01:44:00.039Z,8.50
2022-08-31T01:44:10.130Z,8.30
2022-08-31T01:44:20.241Z,8.60
2022-08-31T01:44:30.214Z,8.60
2022-08-31T01:44:40.151Z,8.70
2022-08-31T01:44:50.068Z,8.30
2022-08-31T01:45:00.327Z,8.50
2022-08-31T01:45:10.144Z,8.10
2022-08-31T01:45:20.061Z,8.00
2022-08-31T01:45:30.295Z,7.80
2022-08-31T01:45:40.248Z,7.70
2022-08-31T01:45:50.276Z,7.50
2022-08-31T01:46:00.139Z,7.70
2022-08-31T01:46:10.030Z,8.00
2022-08-31T01:46:20.106Z,8.00
2022-08-31T01:46:30.270Z,7.80
2022-08-31T01:46:40.320Z,7.90
2022-08-31T01:46:50.210Z,7.80
2022-08-31T01:47:00.325Z,7.90
2022-08-31T01:47:10.413Z,7.80
2022-08-31T01:47:20.175Z,8.00
2022-08-31T01:47:30.037Z,7.80
2022-08-31T01:47:40.135Z,8.00
2022-08-31T01:47:50.084Z,7.80
2022-08-31T01:48:00.174Z,7.80
2022-08-31T01:48:10.234Z,7.50
2022-08-31T01:48:20.294Z,7.40
2022-08-31T01:48:30.146Z,7.20
2022-08-31T01:48:41.415Z,7.20
2022-08-31T01:48:50.192Z,7.40
2022-08-31T01:49:00.114Z,7.20
2022-08-31T01:49:10.147Z,7.20
2022-08-31T01:49:20.213Z,6.90
2022-08-31T01:49:30.110Z,7.00
2022-08-31T01:49:40.194Z,7.30
2022-08-31T01:49:50.128Z,7.40
2022-08-31T01:50:00.275Z,7.30
2022-08-31T01:50:10.200Z,7.00
2022-08-31T01:50:20.307Z,6.90
2022-08-31T01:50:30.226Z,6.90
2022-08-31T01:50:40.095Z,7.00
2022-08-31T01:50:50.188Z,7.30
2022-08-31T01:51:00.262Z,7.40
2022-08-31T01:51:10.775Z,7.40
2022-08-31T01:51:20.200Z,7.30
2022-08-31T01:51:30.151Z,7.40
2022-08-31T01:51:40.117Z,7.60
2022-08-31T01:51:50.212Z,7.40
2022-08-31T01:52:00.075Z,7.00
2022-08-31T01:52:10.231Z,6.80
2022-08-31T01:52:20.126Z,6.90
2022-08-31T01:52:30.270Z,7.10
2022-08-31T01:52:40.230Z,7.00
2022-08-31T01:52:50.334Z,7.00
2022-08-31T01:53:00.236Z,7.30
2022-08-31T01:53:10.035Z,7.40
2022-08-31T01:53:20.187Z,7.80
2022-08-31T01:53:30.142Z,7.70
2022-08-31T01:53:40.286Z,7.40
2022-08-31T01:53:50.086Z,7.20
2022-08-31T01:54:00.224Z,7.10
2022-08-31T01:54:10.181Z,7.30
2022-08-31T01:54:20.074Z,7.30
2022-08-31T01:54:30.156Z,7.50
2022-08-31T01:54:40.342Z,7.60
2022-08-31T01:54:50.087Z,7.80
2022-08-31T01:55:00.042Z,7.50
2022-08-31T01:55:10.385Z,7.00
2022-08-31T01:55:20.100Z,6.80
2022-08-31T01:55:30.226Z,6.90
2022-08-31T01:55:40.124Z,7.20
2022-08-31T01:55:50.133Z,7.40
2022-08-31T01:56:00.086Z,7.40
2022-08-31T01:56:10.274Z,7.50
2022-08-31T01:56:20.239Z,7.50
2022-08-31T01:56:30.376Z,7.50
2022-08-31T01:56:40.231Z,7.50
2022-08-31T01:56:50.127Z,7.30
2022-08-31T01:57:00.089Z,7.40
2022-08-31T01:57:10.163Z,7.30
2022-08-31T01:57:21.850Z,7.10
2022-08-31T01:57:33.527Z,7.00
2022-08-31T01:57:40.183Z,6.90
2022-08-31T01:57:50.071Z,6.90
2022-08-31T01:58:00.206Z,7.00
2022-08-31T01:58:10.353Z,6.90
2022-08-31T01:58:20.303Z,7.10
2022-08-31T01:58:30.337Z,7.10
2022-08-31T01:58:40.315Z,6.90
2022-08-31T01:58:50.282Z,6.80
2022-08-31T01:59:01.462Z,6.90
2022-08-31T01:59:10.310Z,7.10
2022-08-31T01:59:20.041Z,7.30
2022-08-31T01:59:30.136Z,7.40
2022-08-31T01:59:40.143Z,7.70
2022-08-31T01:59:50.315Z,7.60
2022-08-31T02:00:00.302Z,7.60
2022-08-31T02:00:10.083Z,7.40
2022-08-31T02:00:20.172Z,7.20
2022-08-31T02:00:30.262Z,7.20
2022-08-31T02:00:40.076Z,7.50
2022-08-31T02:00:50.217Z,7.60
2022-08-31T02:01:00.387Z,7.30
2022-08-31T02:01:10.730Z,7.00
2022-08-31T02:01:32.890Z,6.90
2022-08-31T02:01:33.725Z,7.20
2022-08-31T02:01:40.404Z,7.30
2022-08-31T02:01:50.286Z,7.50
2022-08-31T02:02:00.387Z,7.30
2022-08-31T02:02:10.074Z,7.40
2022-08-31T02:02:20.188Z,7.20
2022-08-31T02:02:30.365Z,7.10
2022-08-31T02:02:40.265Z,7.10
2022-08-31T02:02:50.326Z,7.10
2022-08-31T02:03:00.064Z,7.10
2022-08-31T02:03:10.133Z,7.30
2022-08-31T02:03:20.306Z,7.40
2022-08-31T02:03:30.139Z,7.40
2022-08-31T02:03:40.099Z,7.10
2022-08-31T02:03:50.289Z,7.20
2022-08-31T02:04:00.139Z,7.20
2022-08-31T02:04:10.305Z,7.20
2022-08-31T02:04:20.061Z,7.20
2022-08-31T02:04:30.046Z,7.00
2022-08-31T02:04:40.309Z,7.30
2022-08-31T02:04:50.146Z,7.40
2022-08-31T02:05:00.343Z,7.50
2022-08-31T02:05:10.361Z,7.50
2022-08-31T02:05:20.089Z,7.50
2022-08-31T02:05:30.183Z,7.60
2022-08-31T02:05:40.105Z,7.40
2022-08-31T02:05:50.124Z,7.60
2022-08-31T02:06:15.096Z,7.50
2022-08-31T02:06:15.452Z,7.50
2022-08-31T02:06:15.908Z,7.50
2022-08-31T02:06:17.129Z,7.40
2022-08-31T02:06:17.497Z,7.40
2022-08-31T02:06:17.850Z,7.40
2022-08-31T02:06:25.371Z,7.60
2022-08-31T02:06:35.408Z,7.90
2022-08-31T02:06:45.389Z,7.60
2022-08-31T02:06:55.100Z,7.40
2022-08-31T02:07:05.279Z,6.90
2022-08-31T02:07:15.167Z,7.40
2022-08-31T02:07:25.164Z,7.40
2022-08-31T02:07:35.215Z,7.60
2022-08-31T02:07:45.306Z,7.40
2022-08-31T02:07:55.294Z,7.60
2022-08-31T02:08:05.214Z,7.80
2022-08-31T02:08:15.170Z,7.70
2022-08-31T02:08:25.170Z,7.80
2022-08-31T02:08:35.167Z,7.60
2022-08-31T02:08:45.187Z,7.80
2022-08-31T02:08:55.172Z,7.60
2022-08-31T02:09:05.368Z,7.60
2022-08-31T02:09:15.339Z,7.60
2022-08-31T02:09:25.155Z,7.60
2022-08-31T02:09:35.296Z,7.60
2022-08-31T02:09:45.109Z,7.50
2022-08-31T02:09:55.178Z,7.40
2022-08-31T02:10:05.254Z,7.50
2022-08-31T02:10:15.346Z,7.50
2022-08-31T02:10:25.135Z,7.40
2022-08-31T02:10:35.338Z,7.30
2022-08-31T02:10:45.337Z,7.30
2022-08-31T02:10:55.231Z,7.30
2022-08-31T02:11:05.204Z,7.30
2022-08-31T02:11:15.110Z,7.50
2022-08-31T02:11:25.372Z,7.50
2022-08-31T02:11:35.350Z,7.50
2022-08-31T02:11:45.177Z,7.50
2022-08-31T02:11:55.233Z,7.40
2022-08-31T02:12:05.452Z,7.60
2022-08-31T02:12:15.161Z,7.60
2022-08-31T02:12:25.360Z,7.50